createdAt,value
2019-02-15T00:02:17.275Z,81.73
2019-02-15T00:04:48.166Z,81.87
2019-02-15T00:07:19.174Z,81.96
2019-02-15T00:09:49.963Z,81.68
2019-02-15T00:12:21.226Z,81.54
2019-02-15T00:14:52.126Z,81.45
2019-02-15T00:17:51.032Z,81.90
2019-02-15T00:20:29.952Z,82.30
2019-02-15T00:23:00.763Z,81.92
2019-02-15T00:25:31.721Z,82.04
2019-02-15T00:28:02.632Z,82.25
2019-02-15T00:30:33.519Z,82.06
2019-02-15T00:33:04.496Z,81.84
2019-02-15T00:35:35.278Z,82.08
2019-02-15T00:38:06.167Z,82.29
2019-02-15T00:40:36.976Z,82.39
2019-02-15T00:43:07.857Z,82.23
2019-02-15T00:45:56.977Z,83.47
2019-02-15T00:48:28.247Z,83.95
2019-02-15T00:51:20.665Z,83.78
2019-02-15T00:54:01.103Z,83.70
2019-02-15T00:56:36.976Z,83.58
2019-02-15T00:59:26.839Z,83.61
2019-02-15T01:02:10.782Z,83.12
2019-02-15T01:05:07.425Z,82.67
2019-02-15T01:07:56.183Z,82.60
2019-02-15T01:10:49.136Z,84.79
2019-02-15T01:13:30.752Z,84.29
2019-02-15T01:15:55.156Z,84.11
2019-02-15T01:18:26.038Z,83.76
2019-02-15T01:20:57.030Z,83.29
2019-02-15T01:23:27.837Z,83.44
2019-02-15T01:26:07.601Z,83.83
2019-02-15T01:28:57.450Z,84.04
2019-02-15T01:31:40.778Z,83.83
2019-02-15T01:34:30.594Z,83.70
2019-02-15T01:37:15.095Z,83.80
2019-02-15T01:40:07.766Z,83.81
2019-02-15T01:42:47.407Z,83.97
2019-02-15T01:45:23.158Z,84.10
2019-02-15T01:47:54.150Z,84.12
2019-02-15T01:50:25.139Z,84.01
2019-02-15T01:52:56.140Z,83.79
2019-02-15T01:55:26.928Z,83.87
2019-02-15T01:57:57.815Z,83.73
2019-02-15T02:00:32.699Z,83.27
2019-02-15T02:03:03.666Z,83.01
2019-02-15T02:05:34.554Z,83.20
2019-02-15T02:08:06.709Z,83.05
2019-02-15T02:10:37.466Z,83.26
2019-02-15T02:13:08.501Z,83.01
2019-02-15T02:15:39.451Z,83.32
2019-02-15T02:18:10.609Z,82.99
2019-02-15T02:20:41.522Z,83.05
2019-02-15T02:23:12.665Z,83.29
2019-02-15T02:25:43.510Z,83.38
2019-02-15T02:28:14.407Z,83.17
2019-02-15T02:30:45.287Z,83.21
2019-02-15T02:33:16.265Z,83.71
2019-02-15T02:35:47.252Z,83.60
2019-02-15T02:38:18.340Z,83.43
2019-02-15T02:40:49.134Z,82.90
2019-02-15T02:43:20.020Z,82.98
2019-02-15T02:45:50.807Z,83.25
2019-02-15T02:48:21.751Z,82.84
2019-02-15T02:50:52.708Z,82.68
2019-02-15T02:53:23.987Z,83.03
2019-02-15T02:55:54.768Z,84.72
2019-02-15T02:58:25.783Z,84.51
2019-02-15T03:00:56.764Z,83.56
2019-02-15T03:03:27.662Z,83.27
2019-02-15T03:05:58.618Z,83.42
2019-02-15T03:08:29.512Z,83.06
2019-02-15T03:11:00.300Z,82.49
2019-02-15T03:13:31.496Z,82.95
2019-02-15T03:16:02.274Z,82.72
2019-02-15T03:18:33.258Z,83.10
2019-02-15T03:21:04.147Z,82.71
2019-02-15T03:23:35.360Z,82.36
2019-02-15T03:26:06.248Z,82.54
2019-02-15T03:28:37.136Z,82.55
2019-02-15T03:31:07.901Z,82.55
2019-02-15T03:33:38.799Z,82.05
2019-02-15T03:36:13.029Z,82.14
2019-02-15T03:38:48.711Z,82.88
2019-02-15T03:41:28.400Z,82.78
2019-02-15T03:43:59.451Z,83.43
2019-02-15T03:46:30.232Z,84.04
2019-02-15T03:49:01.336Z,83.89
2019-02-15T03:51:32.319Z,83.73
2019-02-15T03:54:03.407Z,84.01
2019-02-15T03:56:34.313Z,84.60
2019-02-15T03:59:05.185Z,85.03
2019-02-15T04:01:35.980Z,85.31
2019-02-15T04:04:07.040Z,85.50
2019-02-15T04:06:37.969Z,85.65
2019-02-15T04:09:08.955Z,85.29
2019-02-15T04:11:39.826Z,85.55
2019-02-15T04:14:11.109Z,86.10
2019-02-15T04:16:42.020Z,85.98
2019-02-15T04:19:12.919Z,85.85
2019-02-15T04:21:43.787Z,85.71
2019-02-15T04:24:14.681Z,85.38
2019-02-15T04:26:45.451Z,84.53
2019-02-15T04:29:16.646Z,84.19
2019-02-15T04:31:48.473Z,83.83
2019-02-15T04:34:19.376Z,83.31
2019-02-15T04:36:51.148Z,83.14
2019-02-15T04:39:22.070Z,83.23
2019-02-15T04:41:53.057Z,83.57
2019-02-15T04:44:24.055Z,83.38
2019-02-15T04:46:55.014Z,83.74
2019-02-15T04:49:25.893Z,84.22
2019-02-15T04:51:56.792Z,84.27
2019-02-15T04:54:27.681Z,83.87
2019-02-15T04:56:58.473Z,83.65
2019-02-15T04:59:29.372Z,83.35
2019-02-15T05:02:00.333Z,82.63
2019-02-15T05:04:31.303Z,82.21
2019-02-15T05:07:04.102Z,82.99
2019-02-15T05:09:35.743Z,83.65
2019-02-15T05:12:06.583Z,83.50
2019-02-15T05:14:37.344Z,83.24
2019-02-15T05:17:08.132Z,83.17
2019-02-15T05:19:39.030Z,82.54
2019-02-15T05:22:09.910Z,82.23
2019-02-15T05:24:40.780Z,82.48
2019-02-15T05:27:12.740Z,82.75
2019-02-15T05:29:43.770Z,82.48
2019-02-15T05:32:14.563Z,81.93
2019-02-15T05:34:45.490Z,82.04
2019-02-15T05:37:16.459Z,82.77
2019-02-15T05:39:47.439Z,82.78
2019-02-15T05:42:18.233Z,82.90
2019-02-15T05:44:49.115Z,82.55
2019-02-15T05:47:19.894Z,82.35
2019-02-15T05:49:50.634Z,83.14
2019-02-15T05:52:21.504Z,83.32
2019-02-15T05:54:52.304Z,83.59
2019-02-15T05:57:23.208Z,83.53
2019-02-15T05:59:53.984Z,83.07
2019-02-15T06:02:25.012Z,82.62
2019-02-15T06:04:55.885Z,82.37
2019-02-15T06:07:26.785Z,82.65
2019-02-15T06:09:57.735Z,82.80
2019-02-15T06:12:28.576Z,82.84
2019-02-15T06:14:59.372Z,82.91
2019-02-15T06:17:30.372Z,83.23
2019-02-15T06:20:01.332Z,82.84
2019-02-15T06:22:32.218Z,82.65
2019-02-15T06:25:03.011Z,82.46
2019-02-15T06:27:33.787Z,82.50
2019-02-15T06:30:04.973Z,82.25
2019-02-15T06:32:35.871Z,82.80
2019-02-15T06:35:06.865Z,82.77
2019-02-15T06:37:37.761Z,82.66
2019-02-15T06:40:08.749Z,82.64
2019-02-15T06:42:39.521Z,82.48
2019-02-15T06:45:10.510Z,82.54
2019-02-15T06:47:41.419Z,82.35
2019-02-15T06:50:12.303Z,82.02
2019-02-15T06:52:43.281Z,82.08
2019-02-15T06:55:14.562Z,81.92
2019-02-15T06:57:45.470Z,82.23
2019-02-15T07:00:34.219Z,82.36
2019-02-15T07:03:21.462Z,82.33
2019-02-15T07:05:52.396Z,82.43
2019-02-15T07:08:23.221Z,82.32
2019-02-15T07:10:54.193Z,81.79
2019-02-15T07:13:25.084Z,82.40
2019-02-15T07:15:56.075Z,82.53
2019-02-15T07:18:26.965Z,82.93
2019-02-15T07:20:58.255Z,82.01
2019-02-15T07:23:29.060Z,81.84
2019-02-15T07:26:00.018Z,81.86
2019-02-15T07:28:30.824Z,82.00
2019-02-15T07:31:01.764Z,82.25
2019-02-15T07:33:32.614Z,82.40
2019-02-15T07:36:03.707Z,82.21
2019-02-15T07:38:34.477Z,82.22
2019-02-15T07:41:06.090Z,82.47
2019-02-15T07:43:37.092Z,82.54
2019-02-15T07:46:08.049Z,82.40
2019-02-15T07:48:38.960Z,82.11
2019-02-15T07:51:10.166Z,82.03
2019-02-15T07:53:41.042Z,81.74
2019-02-15T07:56:12.041Z,81.86
2019-02-15T07:58:42.923Z,81.79
2019-02-15T08:01:13.916Z,81.88
2019-02-15T08:03:44.801Z,81.69
2019-02-15T08:06:16.984Z,81.71
2019-02-15T08:08:47.906Z,82.65
2019-02-15T08:11:19.496Z,83.99
2019-02-15T08:13:50.288Z,85.16
2019-02-15T08:16:21.353Z,85.82
2019-02-15T08:18:52.170Z,86.28
2019-02-15T08:21:24.476Z,86.11
2019-02-15T08:23:55.277Z,85.32
2019-02-15T08:26:26.242Z,85.05
2019-02-15T08:28:57.055Z,83.75
2019-02-15T08:31:28.398Z,83.57
2019-02-15T08:33:59.231Z,83.17
2019-02-15T08:36:30.414Z,83.07
2019-02-15T08:39:01.297Z,83.43
2019-02-15T08:41:34.395Z,83.64
2019-02-15T08:44:05.436Z,83.53
2019-02-15T08:46:36.338Z,83.99
2019-02-15T08:49:07.126Z,84.02
2019-02-15T08:51:37.882Z,83.93
2019-02-15T08:54:08.895Z,83.94
2019-02-15T08:56:39.867Z,84.07
2019-02-15T08:59:10.653Z,84.19
2019-02-15T09:01:41.651Z,84.54
2019-02-15T09:04:12.447Z,84.68
2019-02-15T09:06:43.416Z,84.56
2019-02-15T09:09:14.323Z,84.77
2019-02-15T09:11:45.192Z,84.81
2019-02-15T09:14:15.984Z,84.64
2019-02-15T09:16:47.179Z,84.37
2019-02-15T09:19:18.056Z,84.32
2019-02-15T09:21:48.944Z,84.50
2019-02-15T09:24:19.734Z,84.70
2019-02-15T09:26:50.829Z,84.55
2019-02-15T09:29:21.717Z,84.26
2019-02-15T09:31:52.595Z,83.95
2019-02-15T09:34:23.415Z,83.70
2019-02-15T09:36:54.726Z,83.51
2019-02-15T09:39:25.582Z,82.82
2019-02-15T09:41:56.657Z,83.17
2019-02-15T09:44:27.524Z,82.42
2019-02-15T09:46:58.519Z,82.11
2019-02-15T09:49:29.340Z,81.78
2019-02-15T09:52:00.227Z,82.40
2019-02-15T09:54:31.116Z,81.18
2019-02-15T09:57:02.003Z,80.78
2019-02-15T09:59:34.108Z,80.56
2019-02-15T10:02:05.098Z,79.20
2019-02-15T10:04:35.882Z,77.49
2019-02-15T10:07:06.841Z,77.71
2019-02-15T10:09:37.780Z,77.09
2019-02-15T10:12:08.663Z,76.86
2019-02-15T10:14:39.339Z,75.52
2019-02-15T10:17:10.254Z,74.92
2019-02-15T10:19:41.207Z,74.69
2019-02-15T10:22:12.256Z,74.48
2019-02-15T10:24:43.198Z,73.70
2019-02-15T10:27:14.188Z,74.88
2019-02-15T10:29:44.967Z,74.06
2019-02-15T10:32:15.945Z,74.21
2019-02-15T10:34:46.826Z,74.93
2019-02-15T10:37:18.011Z,75.11
2019-02-15T10:39:49.046Z,74.27
2019-02-15T10:42:20.020Z,74.39
2019-02-15T10:44:50.792Z,73.66
2019-02-15T10:47:24.931Z,74.18
2019-02-15T10:49:54.330Z,74.19
2019-02-15T10:52:25.199Z,74.08
2019-02-15T10:54:57.207Z,74.31
2019-02-15T10:57:28.200Z,73.72
2019-02-15T10:59:58.983Z,73.41
2019-02-15T11:02:29.875Z,73.67
2019-02-15T11:05:00.573Z,70.01
2019-02-15T11:07:31.489Z,72.98
2019-02-15T11:10:02.244Z,71.35
2019-02-15T11:12:33.204Z,69.19
2019-02-15T11:15:04.100Z,67.95
2019-02-15T11:17:35.168Z,67.97
2019-02-15T11:20:06.503Z,67.24
2019-02-15T11:22:37.508Z,67.16
2019-02-15T11:25:09.505Z,65.78
2019-02-15T11:27:40.739Z,66.40
2019-02-15T11:30:13.135Z,67.36
2019-02-15T11:32:44.136Z,65.65
2019-02-15T11:35:15.400Z,64.90
2019-02-15T11:37:46.400Z,64.32
2019-02-15T11:40:17.303Z,63.95
2019-02-15T11:42:48.293Z,64.23
2019-02-15T11:45:19.258Z,60.87
2019-02-15T11:47:50.166Z,62.18
2019-02-15T11:50:21.033Z,61.91
2019-02-15T11:52:51.821Z,61.74
2019-02-15T11:55:22.720Z,62.45
2019-02-15T11:57:53.634Z,62.56
2019-02-15T12:00:29.184Z,62.64
2019-02-15T12:03:00.201Z,61.28
2019-02-15T12:05:31.180Z,61.45
2019-02-15T12:08:02.177Z,62.31
2019-02-15T12:10:33.153Z,62.39
2019-02-15T12:13:04.240Z,61.90
2019-02-15T12:15:35.048Z,61.35
2019-02-15T12:18:06.872Z,62.57
2019-02-15T12:20:37.924Z,59.66
2019-02-15T12:23:08.826Z,60.72
2019-02-15T12:25:39.709Z,59.04
2019-02-15T12:28:10.704Z,60.17
2019-02-15T12:30:41.482Z,59.13
2019-02-15T12:33:12.491Z,61.04
2019-02-15T12:35:43.436Z,58.48
2019-02-15T12:38:14.366Z,57.79
2019-02-15T12:40:45.139Z,57.45
2019-02-15T12:43:16.125Z,58.27
2019-02-15T12:45:48.031Z,58.26
2019-02-15T12:48:18.998Z,55.41
2019-02-15T12:50:50.841Z,57.85
2019-02-15T12:53:22.004Z,57.78
2019-02-15T12:55:52.911Z,56.92
2019-02-15T12:58:23.922Z,56.95
2019-02-15T13:00:54.718Z,56.15
2019-02-15T13:03:26.120Z,57.81
2019-02-15T13:05:56.877Z,58.55
2019-02-15T13:08:28.259Z,60.48
2019-02-15T13:10:59.110Z,58.18
2019-02-15T13:13:30.059Z,57.38
2019-02-15T13:16:00.837Z,56.86
2019-02-15T13:18:31.752Z,55.12
2019-02-15T13:21:03.746Z,57.36
2019-02-15T13:23:34.940Z,57.35
2019-02-15T13:26:08.465Z,56.21
2019-02-15T13:28:38.164Z,57.47
2019-02-15T13:31:08.934Z,56.99
2019-02-15T13:33:39.848Z,54.93
2019-02-15T13:36:10.800Z,56.41
2019-02-15T13:38:41.896Z,55.00
2019-02-15T13:41:12.789Z,55.08
2019-02-15T13:43:43.779Z,55.60
2019-02-15T13:46:14.589Z,54.84
2019-02-15T13:48:45.476Z,54.90
2019-02-15T13:51:16.453Z,58.33
2019-02-15T13:53:47.790Z,53.71
2019-02-15T13:56:18.742Z,52.23
2019-02-15T13:58:49.741Z,51.66
2019-02-15T14:01:20.608Z,52.05
2019-02-15T14:03:51.477Z,51.25
2019-02-15T14:06:22.383Z,54.90
2019-02-15T14:08:53.463Z,52.07
2019-02-15T14:11:24.271Z,53.70
2019-02-15T14:13:55.155Z,50.85
2019-02-15T14:16:25.940Z,53.87
2019-02-15T14:18:56.932Z,56.00
2019-02-15T14:21:27.797Z,56.24
2019-02-15T14:23:58.704Z,52.55
2019-02-15T14:26:29.472Z,50.96
2019-02-15T14:29:00.393Z,50.23
2019-02-15T14:31:31.369Z,55.62
2019-02-15T14:34:02.271Z,58.50
2019-02-15T14:36:32.938Z,59.39
2019-02-15T14:39:06.469Z,53.33
2019-02-15T14:41:37.571Z,58.84
2019-02-15T14:44:08.469Z,58.97
2019-02-15T14:46:39.253Z,59.64
2019-02-15T14:49:10.137Z,60.47
2019-02-15T14:51:41.460Z,60.56
2019-02-15T14:54:12.326Z,61.60
2019-02-15T14:56:43.295Z,61.20
2019-02-15T14:59:14.195Z,60.63
2019-02-15T15:01:45.773Z,60.33
2019-02-15T15:04:16.681Z,60.48
2019-02-15T15:06:47.563Z,60.26
2019-02-15T15:09:18.507Z,60.95
2019-02-15T15:11:49.368Z,62.12
2019-02-15T15:14:20.349Z,62.94
2019-02-15T15:16:51.131Z,63.63
2019-02-15T15:19:22.138Z,63.73
2019-02-15T15:21:53.006Z,63.75
2019-02-15T15:24:23.804Z,64.17
2019-02-15T15:26:54.579Z,64.06
2019-02-15T15:29:25.476Z,64.53
2019-02-15T15:31:56.340Z,64.27
2019-02-15T15:34:27.223Z,64.26
2019-02-15T15:36:58.028Z,64.87
2019-02-15T15:39:28.914Z,64.66
2019-02-15T15:41:59.799Z,64.84
2019-02-15T15:44:31.387Z,65.19
2019-02-15T15:47:02.291Z,65.47
2019-02-15T15:49:33.654Z,65.95
2019-02-15T15:52:04.470Z,66.21
2019-02-15T15:54:35.643Z,66.50
2019-02-15T15:57:06.663Z,66.71
2019-02-15T15:59:37.633Z,66.70
2019-02-15T16:02:08.542Z,67.19
2019-02-15T16:04:39.432Z,67.44
2019-02-15T16:07:10.409Z,67.48
2019-02-15T16:09:41.294Z,67.82
2019-02-15T16:12:12.203Z,67.94
2019-02-15T16:14:43.589Z,67.85
2019-02-15T16:17:14.363Z,67.81
2019-02-15T16:19:49.450Z,67.97
2019-02-15T16:22:18.000Z,68.08
2019-02-15T16:24:48.984Z,68.67
2019-02-15T16:27:19.766Z,69.42
2019-02-15T16:29:50.761Z,69.43
2019-02-15T16:32:21.730Z,69.62
2019-02-15T16:34:52.619Z,69.79
2019-02-15T16:37:23.411Z,70.03
2019-02-15T16:39:54.298Z,69.94
2019-02-15T16:42:25.185Z,69.99
2019-02-15T16:44:56.971Z,70.32
2019-02-15T16:47:27.687Z,70.81
2019-02-15T16:49:58.577Z,70.63
2019-02-15T16:52:29.578Z,70.98
2019-02-15T16:55:00.830Z,71.93
2019-02-15T16:57:31.838Z,72.53
2019-02-15T17:00:02.840Z,73.62
2019-02-15T17:02:34.322Z,74.47
2019-02-15T17:05:05.396Z,74.88
2019-02-15T17:07:36.343Z,75.27
2019-02-15T17:10:07.824Z,75.74
2019-02-15T17:12:38.816Z,75.93
2019-02-15T17:15:10.320Z,76.62
2019-02-15T17:17:41.293Z,76.55
2019-02-15T17:20:12.400Z,76.71
2019-02-15T17:22:48.803Z,76.93
2019-02-15T17:25:19.781Z,77.23
2019-02-15T17:27:50.591Z,77.56
2019-02-15T17:30:21.477Z,77.69
2019-02-15T17:32:52.250Z,77.35
2019-02-15T17:35:23.158Z,77.32
2019-02-15T17:37:54.130Z,77.10
2019-02-15T17:40:25.652Z,76.70
2019-02-15T17:42:58.443Z,76.19
2019-02-15T17:45:29.348Z,76.07
2019-02-15T17:48:00.234Z,75.83
2019-02-15T17:50:31.229Z,75.86
2019-02-15T17:53:01.804Z,75.97
2019-02-15T17:55:32.807Z,76.48
2019-02-15T17:58:03.802Z,76.95
2019-02-15T18:00:35.853Z,77.21
2019-02-15T18:03:06.804Z,77.57
2019-02-15T18:05:37.880Z,77.38
2019-02-15T18:08:08.680Z,77.41
2019-02-15T18:10:39.694Z,77.43
2019-02-15T18:13:10.560Z,77.36
2019-02-15T18:15:41.365Z,77.20
2019-02-15T18:18:12.122Z,77.07
2019-02-15T18:20:43.006Z,76.96
2019-02-15T18:23:13.897Z,77.27
2019-02-15T18:25:44.781Z,77.74
2019-02-15T18:28:15.561Z,77.78
2019-02-15T18:30:46.667Z,77.95
2019-02-15T18:33:17.458Z,78.01
2019-02-15T18:35:48.532Z,77.76
2019-02-15T18:38:19.217Z,77.45
2019-02-15T18:40:50.341Z,77.60
2019-02-15T18:43:21.201Z,77.41
2019-02-15T18:45:52.185Z,77.35
2019-02-15T18:48:23.022Z,77.36
2019-02-15T18:50:53.898Z,77.29
2019-02-15T18:53:24.648Z,77.48
2019-02-15T18:55:55.624Z,77.57
2019-02-15T18:58:26.535Z,77.55
2019-02-15T19:00:57.534Z,77.78
2019-02-15T19:03:28.412Z,77.47
2019-02-15T19:06:00.228Z,77.71
2019-02-15T19:08:31.107Z,77.93
2019-02-15T19:11:02.013Z,78.11
2019-02-15T19:13:32.938Z,77.98
2019-02-15T19:16:04.165Z,77.81
2019-02-15T19:18:35.241Z,77.83
2019-02-15T19:21:06.301Z,77.95
2019-02-15T19:23:37.129Z,77.96
2019-02-15T19:26:08.600Z,78.25
2019-02-15T19:28:39.520Z,78.18
2019-02-15T19:31:10.337Z,78.24
2019-02-15T19:33:41.191Z,78.28
2019-02-15T19:36:12.214Z,77.73
2019-02-15T19:38:43.087Z,77.66
2019-02-15T19:41:14.055Z,77.58
2019-02-15T19:43:44.967Z,77.36
2019-02-15T19:46:16.035Z,77.53
2019-02-15T19:48:46.923Z,77.89
2019-02-15T19:51:17.915Z,77.92
2019-02-15T19:53:48.707Z,77.97
2019-02-15T19:56:19.696Z,78.12
2019-02-15T19:58:50.703Z,78.21
2019-02-15T20:01:21.677Z,78.38
2019-02-15T20:03:52.474Z,78.41
2019-02-15T20:06:23.669Z,78.70
2019-02-15T20:08:54.462Z,79.19
2019-02-15T20:11:25.343Z,79.07
2019-02-15T20:13:56.216Z,79.40
2019-02-15T20:16:27.345Z,79.47
2019-02-15T20:18:58.291Z,79.33
2019-02-15T20:21:29.220Z,79.08
2019-02-15T20:23:59.985Z,79.04
2019-02-15T20:26:32.050Z,79.25
2019-02-15T20:29:02.970Z,79.43
2019-02-15T20:31:34.257Z,79.38
2019-02-15T20:34:05.172Z,79.15
2019-02-15T20:36:36.058Z,79.30
2019-02-15T20:39:07.131Z,79.29
2019-02-15T20:41:38.655Z,79.06
2019-02-15T20:44:12.129Z,78.99
2019-02-15T20:46:43.965Z,79.58
2019-02-15T20:49:19.154Z,79.73
2019-02-15T20:51:49.863Z,79.69
2019-02-15T20:54:20.674Z,79.81
2019-02-15T20:56:51.563Z,79.82
2019-02-15T20:59:22.444Z,79.64
2019-02-15T21:01:53.343Z,79.69
2019-02-15T21:04:24.212Z,79.85
2019-02-15T21:06:55.095Z,79.71
2019-02-15T21:09:25.869Z,79.83
2019-02-15T21:11:56.785Z,79.83
2019-02-15T21:14:27.567Z,79.82
2019-02-15T21:16:58.827Z,79.76
2019-02-15T21:19:29.734Z,80.23
2019-02-15T21:22:00.716Z,80.28
2019-02-15T21:24:31.602Z,80.16
2019-02-15T21:27:02.494Z,79.75
2019-02-15T21:29:33.277Z,79.35
2019-02-15T21:32:04.176Z,79.69
2019-02-15T21:34:34.946Z,80.61
2019-02-15T21:37:05.858Z,80.75
2019-02-15T21:39:36.635Z,80.47
2019-02-15T21:42:07.530Z,80.14
2019-02-15T21:44:38.312Z,80.18
2019-02-15T21:47:09.474Z,80.18
2019-02-15T21:49:40.277Z,80.26
2019-02-15T21:52:11.407Z,80.25
2019-02-15T21:54:42.276Z,80.11
2019-02-15T21:57:13.263Z,79.98
2019-02-15T21:59:44.233Z,80.24
2019-02-15T22:02:15.282Z,80.50
2019-02-15T22:04:46.133Z,81.02
2019-02-15T22:07:17.194Z,81.02
2019-02-15T22:09:48.096Z,80.71
2019-02-15T22:12:18.972Z,80.51
2019-02-15T22:14:49.769Z,80.67
2019-02-15T22:17:20.670Z,80.85
2019-02-15T22:19:51.541Z,81.23
2019-02-15T22:22:22.430Z,81.66
2019-02-15T22:24:53.234Z,81.20
2019-02-15T22:27:24.121Z,81.00
2019-02-15T22:29:54.885Z,81.02
2019-02-15T22:32:25.860Z,80.86
2019-02-15T22:34:56.761Z,81.07
2019-02-15T22:37:27.653Z,81.32
2019-02-15T22:39:58.573Z,81.47
2019-02-15T22:42:29.345Z,81.46
2019-02-15T22:45:00.307Z,81.51
2019-02-15T22:47:31.401Z,81.27
2019-02-15T22:50:02.201Z,81.10
2019-02-15T22:52:33.163Z,80.94
2019-02-15T22:55:04.068Z,81.39
2019-02-15T22:57:35.056Z,81.62
2019-02-15T23:00:12.992Z,81.49
2019-02-15T23:02:43.075Z,81.56
2019-02-15T23:05:15.006Z,81.84
2019-02-15T23:07:46.146Z,81.81
2019-02-15T23:10:17.066Z,81.80
2019-02-15T23:12:48.061Z,81.75
2019-02-15T23:15:18.946Z,81.67
2019-02-15T23:17:50.560Z,81.79
2019-02-15T23:20:21.441Z,81.91
2019-02-15T23:22:52.384Z,82.08
2019-02-15T23:25:25.006Z,81.79
2019-02-15T23:27:56.351Z,81.81
2019-02-15T23:30:27.144Z,81.31
2019-02-15T23:32:58.262Z,81.71
2019-02-15T23:35:29.015Z,82.12
2019-02-15T23:38:00.220Z,82.25
2019-02-15T23:40:31.121Z,82.14
2019-02-15T23:43:02.303Z,82.01
2019-02-15T23:45:34.203Z,81.75
2019-02-15T23:48:05.321Z,81.59
2019-02-15T23:50:37.127Z,81.54
2019-02-15T23:53:09.133Z,81.50
2019-02-15T23:55:39.924Z,81.88
2019-02-15T23:58:10.826Z,82.30
